| time (UTC) | temp C | wind direction | speed KPH | gust KPH | rain 1hr cm | rain 24hr cm | rain mn cm | humidity % | barometer mb |
| 20260508144607 | 26 | 355 | 0.0 | 1.6 | 0.00 | 0.86 | 0.81 | 75 | 1009.8 |
| 20260508143101 | 26 | 355 | 0.0 | 3.2 | 0.00 | 0.86 | 0.81 | 76 | 1009.8 |
| 20260508141607 | 26 | 355 | 0.0 | 0.0 | 0.00 | 0.86 | 0.81 | 76 | 1010.1 |
| 20260508140057 | 26 | 355 | 0.0 | 0.0 | 0.00 | 0.86 | 0.81 | 76 | 1010.2 |
| 20260508134557 | 26 | 355 | 0.0 | 0.0 | 0.00 | 0.86 | 0.81 | 76 | 1010.5 |
| 20260508133055 | 26 | 355 | 0.0 | 0.0 | 0.00 | 0.86 | 0.81 | 75 | 1010.0 |
| 20260508131606 | 26 | 355 | 0.0 | 1.6 | 0.00 | 0.86 | 0.81 | 74 | 1009.9 |
| 20260508130054 | 26 | 355 | 0.0 | 3.2 | 0.00 | 0.89 | 0.81 | 74 | 1009.9 |
| 20260508124553 | 26 | 355 | 0.0 | 1.6 | 0.00 | 0.89 | 0.81 | 75 | 1010.1 |
| 20260508123112 | 26 | 32 | 0.0 | 4.8 | 0.00 | 0.89 | 0.81 | 75 | 1009.4 |
| 20260508121601 | 26 | 32 | 0.0 | 0.0 | 0.00 | 0.89 | 0.81 | 76 | 1009.4 |
| 20260508120106 | 26 | 32 | 0.0 | 0.0 | 0.00 | 0.94 | 0.81 | 75 | 1009.2 |
| 20260508114559 | 26 | 32 | 0.0 | 0.0 | 0.00 | 0.94 | 0.81 | 74 | 1009.2 |
| 20260508113105 | 26 | 32 | 0.0 | 3.2 | 0.00 | 0.94 | 0.81 | 72 | 1009.3 |
| 20260508111551 | 26 | 13 | 0.0 | 6.4 | 0.00 | 0.94 | 0.81 | 72 | 1009.6 |
| 20260508110052 | 26 | 342 | 1.6 | 12.9 | 0.00 | 0.99 | 0.81 | 72 | 1009.1 |
| 20260508104549 | 26 | 340 | 4.8 | 12.9 | 0.00 | 0.99 | 0.81 | 71 | 1008.9 |
| 20260508103059 | 27 | 36 | 4.8 | 9.7 | 0.00 | 0.99 | 0.81 | 70 | 1008.5 |
| 20260508101554 | 27 | 41 | 1.6 | 6.4 | 0.00 | 0.99 | 0.81 | 68 | 1008.3 |
| 20260508100047 | 27 | 348 | 3.2 | 8.0 | 0.00 | 1.04 | 0.81 | 68 | 1007.8 |
| 20260508094546 | 27 | 26 | 0.0 | 4.8 | 0.00 | 1.04 | 0.81 | 67 | 1007.4 |
| 20260508093046 | 27 | 12 | 0.0 | 3.2 | 0.00 | 1.04 | 0.81 | 68 | 1007.3 |
| 20260508091545 | 27 | 360 | 1.6 | 8.0 | 0.00 | 1.04 | 0.81 | 69 | 1007.1 |
| 20260508090048 | 27 | 5 | 1.6 | 8.0 | 0.00 | 1.12 | 0.81 | 69 | 1007.3 |
| 20260508084544 | 28 | 5 | 3.2 | 9.7 | 0.00 | 1.12 | 0.81 | 68 | 1007.4 |
| 20260508083048 | 28 | 11 | 0.0 | 4.8 | 0.00 | 1.12 | 0.81 | 68 | 1006.7 |
| 20260508081543 | 28 | 13 | 1.6 | 9.7 | 0.00 | 1.12 | 0.81 | 68 | 1006.3 |
| 20260508080049 | 29 | 22 | 6.4 | 19.3 | 0.00 | 1.14 | 0.81 | 67 | 1006.5 |
| 20260508074543 | 30 | 96 | 3.2 | 12.9 | 0.00 | 1.14 | 0.81 | 66 | 1005.8 |
| 20260508073143 | 30 | 130 | 1.6 | 16.1 | 0.00 | 1.14 | 0.81 | 64 | 1006.3 |
| 20260508071541 | 31 | 113 | 3.2 | 19.3 | 0.00 | 1.14 | 0.81 | 62 | 1005.9 |
| 20260508070040 | 31 | 107 | 8.0 | 20.9 | 0.00 | 1.14 | 0.81 | 62 | 1005.9 |
| 20260508064541 | 31 | 142 | 9.7 | 20.9 | 0.00 | 1.14 | 0.81 | 62 | 1005.5 |
| 20260508063055 | 32 | 131 | 3.2 | 17.7 | 0.00 | 1.14 | 0.81 | 60 | 1005.8 |
| 20260508061536 | 32 | 148 | 11.3 | 17.7 | 0.00 | 1.14 | 0.81 | 56 | 1006.2 |
| 20260508060035 | 32 | 110 | 6.4 | 16.1 | 0.00 | 1.14 | 0.81 | 58 | 1006.0 |
| 20260508054534 | 32 | 114 | 3.2 | 14.5 | 0.00 | 1.14 | 0.81 | 60 | 1006.3 |
| 20260508053032 | 32 | 85 | 4.8 | 12.9 | 0.00 | 1.14 | 0.81 | 57 | 1006.4 |
| 20260508051531 | 32 | 157 | 4.8 | 16.1 | 0.00 | 1.14 | 0.81 | 58 | 1006.7 |
| 20260508050035 | 32 | 114 | 3.2 | 14.5 | 0.00 | 1.14 | 0.81 | 59 | 1006.8 |
| 20260508044528 | 32 | 150 | 3.2 | 16.1 | 0.00 | 1.14 | 0.81 | 57 | 1007.0 |
| 20260508043031 | 32 | 119 | 8.0 | 16.1 | 0.00 | 1.14 | 0.81 | 60 | 1007.2 |
| 20260508041526 | 32 | 108 | 4.8 | 11.3 | 0.00 | 1.14 | 0.81 | 58 | 1007.3 |
| 20260508040033 | 32 | 172 | 0.0 | 12.9 | 0.00 | 1.14 | 0.81 | 61 | 1007.6 |
| 20260508034523 | 31 | 154 | 3.2 | 14.5 | 0.00 | 1.14 | 0.81 | 60 | 1007.9 |
| 20260508033021 | 32 | 162 | 0.0 | 11.3 | 0.00 | 1.14 | 0.81 | 59 | 1008.0 |
| 20260508031521 | 32 | 153 | 0.0 | 12.9 | 0.00 | 1.14 | 0.81 | 61 | 1008.2 |
| 20260508030021 | 31 | 136 | 1.6 | 11.3 | 0.00 | 1.14 | 0.81 | 60 | 1008.4 |
| 20260508024518 | 31 | 223 | 0.0 | 6.4 | 0.00 | 1.14 | 0.81 | 60 | 1008.7 |
| 20260508023017 | 31 | 148 | 3.2 | 12.9 | 0.00 | 1.14 | 0.81 | 60 | 1008.7 |
| 20260508021517 | 31 | 160 | 0.0 | 12.9 | 0.00 | 1.14 | 0.81 | 62 | 1008.9 |
| 20260508020019 | 31 | 222 | 0.0 | 6.4 | 0.00 | 1.14 | 0.81 | 62 | 1009.1 |
| 20260508014513 | 31 | 175 | 0.0 | 8.0 | 0.00 | 1.14 | 0.81 | 62 | 1009.1 |
| 20260508013011 | 30 | 138 | 0.0 | 1.6 | 0.00 | 1.14 | 0.81 | 65 | 1009.1 |
| 20260508011514 | 30 | 355 | 0.0 | 3.2 | 0.00 | 1.14 | 0.81 | 66 | 1009.1 |
| 20260508010010 | 31 | 355 | 0.0 | 4.8 | 0.00 | 1.14 | 0.81 | 66 | 1009.5 |
| 20260508004513 | 30 | 32 | 0.0 | 6.4 | 0.00 | 1.14 | 0.81 | 66 | 1009.3 |
| 20260508003006 | 30 | 67 | 0.0 | 4.8 | 0.00 | 1.14 | 0.81 | 64 | 1009.6 |
| 20260508001503 | 30 | 129 | 0.0 | 4.8 | 0.00 | 1.14 | 0.81 | 64 | 1009.4 |
| 20260508000100 | 30 | 18 | 0.0 | 0.0 | 0.00 | 1.14 | 0.81 | 68 | 1009.4 |
| 20260507234555 | 28 | 18 | 0.0 | 3.2 | 0.03 | 1.14 | 0.81 | 72 | 1009.3 |
| 20260507233050 | 27 | 18 | 0.0 | 0.0 | 0.03 | 1.14 | 0.81 | 78 | 1009.2 |
| 20260507231548 | 27 | 19 | 0.0 | 0.0 | 0.05 | 1.14 | 0.81 | 78 | 1009.2 |
| 20260507230046 | 27 | 19 | 0.0 | 4.8 | 0.05 | 1.14 | 0.81 | 78 | 1009.1 |
| 20260507224552 | 27 | 345 | 0.0 | 1.6 | 0.05 | 1.12 | 0.79 | 80 | 1008.9 |
| 20260507223041 | 26 | 68 | 0.0 | 0.0 | 0.08 | 1.12 | 0.79 | 81 | 1008.6 |
| 20260507221539 | 26 | 88 | 0.0 | 0.0 | 0.08 | 1.09 | 0.76 | 81 | 1008.4 |
| 20260507220043 | 25 | 88 | 0.0 | 1.6 | 0.10 | 1.09 | 0.76 | 80 | 1008.3 |
| 20260507214538 | 25 | 89 | 0.0 | 0.0 | 0.13 | 1.07 | 0.71 | 80 | 1008.3 |
| 20260507213037 | 25 | 89 | 0.0 | 0.0 | 0.13 | 1.04 | 0.71 | 80 | 1008.0 |
| 20260507211536 | 25 | 90 | 0.0 | 0.0 | 0.15 | 1.02 | 0.69 | 80 | 1007.9 |
| 20260507210035 | 25 | 89 | 0.0 | 0.0 | 0.18 | 0.99 | 0.66 | 80 | 1007.8 |
| 20260507204536 | 25 | 90 | 0.0 | 0.0 | 0.18 | 0.94 | 0.61 | 80 | 1007.8 |
| 20260507203035 | 25 | 90 | 0.0 | 0.0 | 0.23 | 0.91 | 0.58 | 80 | 1007.6 |
| 20260507201533 | 25 | 90 | 0.0 | 0.0 | 0.23 | 0.86 | 0.53 | 80 | 1007.6 |
| 20260507200033 | 25 | 90 | 0.0 | 1.6 | 0.23 | 0.81 | 0.48 | 80 | 1007.6 |
| 20260507194532 | 25 | 90 | 0.0 | 3.2 | 0.23 | 0.76 | 0.43 | 80 | 1007.3 |
| 20260507193033 | 25 | 90 | 0.0 | 3.2 | 0.20 | 0.69 | 0.36 | 80 | 1007.1 |
| 20260507191530 | 26 | 90 | 0.0 | 1.6 | 0.20 | 0.64 | 0.30 | 80 | 1006.9 |
| 20260507190029 | 26 | 90 | 0.0 | 1.6 | 0.20 | 0.58 | 0.25 | 80 | 1007.0 |
| 20260507184526 | 26 | 90 | 0.0 | 0.0 | 0.15 | 0.53 | 0.20 | 80 | 1007.3 |
| 20260507183026 | 26 | 90 | 0.0 | 1.6 | 0.13 | 0.48 | 0.15 | 80 | 1007.5 |
| 20260507181525 | 26 | 90 | 0.0 | 0.0 | 0.08 | 0.43 | 0.10 | 80 | 1007.5 |
| 20260507180024 | 26 | 90 | 0.0 | 1.6 | 0.03 | 0.38 | 0.05 | 79 | 1007.6 |
| 20260507174533 | 26 | 90 | 0.0 | 1.6 | 0.03 | 0.38 | 0.05 | 79 | 1007.7 |
| 20260507173024 | 26 | 90 | 0.0 | 3.2 | 0.03 | 0.36 | 0.03 | 79 | 1007.8 |
| 20260507171519 | 26 | 90 | 0.0 | 0.0 | 0.03 | 0.36 | 0.03 | 79 | 1007.9 |
| 20260507170025 | 26 | 90 | 0.0 | 0.0 | 0.03 | 0.36 | 0.03 | 79 | 1008.0 |
| 20260507164516 | 26 | 90 | 0.0 | 0.0 | 0.03 | 0.36 | 0.03 | 79 | 1008.1 |
| 20260507163014 | 26 | 90 | 0.0 | 0.0 | 0.00 | 0.33 | 0.00 | 79 | 1008.4 |
| 20260507161513 | 26 | 90 | 0.0 | 0.0 | 0.00 | 0.33 | 0.00 | 79 | 1008.5 |
| 20260507160014 | 26 | 90 | 0.0 | 0.0 | 0.03 | 0.33 | 0.33 | 79 | 1008.6 |
| 20260507154510 | 26 | 90 | 0.0 | 0.0 | 0.03 | 0.33 | 0.33 | 79 | 1008.7 |
| 20260507153010 | 26 | 90 | 0.0 | 0.0 | 0.03 | 0.33 | 0.33 | 79 | 1008.7 |
| 20260507151509 | 26 | 90 | 0.0 | 1.6 | 0.03 | 0.33 | 0.33 | 78 | 1008.7 |
| 20260507150008 | 26 | 90 | 0.0 | 3.2 | 0.03 | 0.30 | 0.30 | 78 | 1008.9 |